createdAt,value
2018-04-18T00:00:59.256Z,9.41
2018-04-18T00:01:59.661Z,9.37
2018-04-18T00:03:00.313Z,9.44
2018-04-18T00:04:00.294Z,9.48
2018-04-18T00:04:59.855Z,9.45
2018-04-18T00:06:00.348Z,9.47
2018-04-18T00:07:00.267Z,9.48
2018-04-18T00:08:00.398Z,9.5
2018-04-18T00:09:00.501Z,9.55
2018-04-18T00:10:00.813Z,9.52
2018-04-18T00:11:01.076Z,9.52
2018-04-18T00:12:00.690Z,9.55
2018-04-18T00:13:01.045Z,9.57
2018-04-18T00:14:00.631Z,9.56
2018-04-18T00:15:00.790Z,9.66
2018-04-18T00:16:00.751Z,9.62
2018-04-18T00:17:00.163Z,9.63
2018-04-18T00:18:00.895Z,9.55
2018-04-18T00:19:01.242Z,9.47
2018-04-18T00:20:01.605Z,9.52
2018-04-18T00:21:01.426Z,9.41
2018-04-18T00:22:01.448Z,9.37
2018-04-18T00:23:32.585Z,9.24
2018-04-18T00:24:13.424Z,9.21
2018-04-18T00:25:13.598Z,9.23
2018-04-18T00:26:14.012Z,9.19
2018-04-18T00:27:14.032Z,9.23
2018-04-18T00:28:14.059Z,9.21
2018-04-18T00:29:13.818Z,9.2
2018-04-18T00:30:14.457Z,9.27
2018-04-18T00:31:14.512Z,9.19
2018-04-18T00:32:14.975Z,9.23
2018-04-18T00:33:14.952Z,9.39
2018-04-18T00:34:14.985Z,9.3
2018-04-18T00:35:14.473Z,9.21
2018-04-18T00:36:15.121Z,9.2
2018-04-18T00:37:15.230Z,9.14
2018-04-18T00:38:15.224Z,9.11
2018-04-18T00:39:15.207Z,9.01
2018-04-18T00:40:15.238Z,9.12
2018-04-18T00:41:15.014Z,9.04
2018-04-18T00:42:15.422Z,9.04
2018-04-18T00:43:15.812Z,8.98
2018-04-18T00:44:16.433Z,9.03
2018-04-18T00:45:16.804Z,9.03
2018-04-18T00:46:16.574Z,9.03
2018-04-18T00:47:16.653Z,9.01
2018-04-18T00:48:17.050Z,9.01
2018-04-18T00:49:17.075Z,9.05
2018-04-18T00:50:17.107Z,9.09
2018-04-18T00:51:16.893Z,9.05
2018-04-18T00:52:17.543Z,9.21
2018-04-18T00:53:17.939Z,9.2
2018-04-18T00:54:17.979Z,9.11
2018-04-18T00:55:18.101Z,9.12
2018-04-18T00:56:18.188Z,9.05
2018-04-18T00:57:18.599Z,9.21
2018-04-18T00:58:18.348Z,9.09
2018-04-18T00:59:19.007Z,9.08
2018-04-18T01:00:22.370Z,9.12
2018-04-18T01:01:22.383Z,9
2018-04-18T01:02:22.797Z,8.97
2018-04-18T01:03:22.534Z,8.89
2018-04-18T01:04:22.841Z,8.94
2018-04-18T01:05:22.875Z,8.89
2018-04-18T01:06:22.621Z,8.85
2018-04-18T01:07:22.694Z,8.9
2018-04-18T01:08:23.353Z,8.97
2018-04-18T01:09:23.374Z,8.9
2018-04-18T01:10:23.398Z,8.86
2018-04-18T01:11:23.438Z,8.86
2018-04-18T01:12:23.453Z,8.79
2018-04-18T01:13:23.825Z,8.77
2018-04-18T01:14:23.859Z,8.74
2018-04-18T01:15:24.272Z,8.8
2018-04-18T01:16:24.279Z,8.86
2018-04-18T01:17:24.677Z,8.77
2018-04-18T01:18:24.705Z,8.85
2018-04-18T01:19:24.736Z,8.87
2018-04-18T01:20:25.133Z,8.92
2018-04-18T01:21:25.165Z,9.03
2018-04-18T01:22:25.579Z,8.94
2018-04-18T01:23:25.687Z,8.87
2018-04-18T01:24:25.727Z,8.9
2018-04-18T01:25:25.752Z,8.82
2018-04-18T01:26:25.530Z,8.85
2018-04-18T01:27:25.983Z,8.8
2018-04-18T01:28:26.376Z,8.74
2018-04-18T01:29:26.532Z,8.68
2018-04-18T01:30:26.943Z,8.62
2018-04-18T01:31:27.353Z,8.64
2018-04-18T01:32:27.154Z,8.54
2018-04-18T01:33:27.559Z,8.52
2018-04-18T01:34:27.052Z,8.49
2018-04-18T01:35:27.721Z,8.57
2018-04-18T01:36:28.064Z,8.52
2018-04-18T01:37:28.093Z,8.52
2018-04-18T01:38:28.216Z,8.65
2018-04-18T01:39:28.864Z,8.6
2018-04-18T01:40:28.883Z,8.68
2018-04-18T01:41:29.006Z,8.62
2018-04-18T01:42:28.877Z,8.62
2018-04-18T01:43:29.705Z,8.64
2018-04-18T01:44:29.722Z,8.69
2018-04-18T01:45:30.133Z,8.61
2018-04-18T01:46:30.155Z,8.62
2018-04-18T01:47:30.177Z,8.65
2018-04-18T01:48:30.215Z,8.62
2018-04-18T01:49:30.251Z,8.54
2018-04-18T01:50:30.273Z,8.62
2018-04-18T01:51:30.017Z,8.4
2018-04-18T01:52:30.441Z,8.5
2018-04-18T01:53:30.882Z,8.47
2018-04-18T01:54:30.872Z,8.47
2018-04-18T01:55:30.915Z,8.44
2018-04-18T01:56:30.944Z,8.47
2018-04-18T01:57:31.026Z,8.47
2018-04-18T01:58:31.405Z,8.57
2018-04-18T01:59:31.147Z,8.52
2018-04-18T02:00:39.299Z,8.53
2018-04-18T02:01:39.502Z,8.6
2018-04-18T02:02:39.355Z,8.65
2018-04-18T02:03:39.382Z,8.65
2018-04-18T02:04:39.454Z,8.68
2018-04-18T02:05:39.411Z,8.71
2018-04-18T02:06:39.288Z,8.64
2018-04-18T02:07:39.528Z,8.62
2018-04-18T02:08:45.739Z,8.5
2018-04-18T02:09:45.754Z,8.49
2018-04-18T02:10:45.891Z,8.47
2018-04-18T02:11:45.925Z,8.5
2018-04-18T02:12:45.963Z,8.49
2018-04-18T02:13:45.996Z,8.53
2018-04-18T02:14:45.760Z,8.53
2018-04-18T02:15:46.129Z,8.39
2018-04-18T02:16:45.896Z,8.31
2018-04-18T02:17:46.015Z,8.31
2018-04-18T02:18:46.378Z,8.28
2018-04-18T02:19:47.019Z,8.29
2018-04-18T02:20:47.164Z,8.22
2018-04-18T02:21:47.184Z,8.26
2018-04-18T02:22:47.221Z,8.19
2018-04-18T02:23:47.243Z,8.14
2018-04-18T02:24:47.424Z,8.11
2018-04-18T02:25:47.542Z,8.16
2018-04-18T02:26:47.865Z,8.21
2018-04-18T02:27:48.254Z,8.21
2018-04-18T02:28:48.617Z,8.17
2018-04-18T02:29:48.629Z,8.13
2018-04-18T02:30:48.664Z,8.16
2018-04-18T02:31:48.436Z,8.16
2018-04-18T02:32:48.574Z,8.16
2018-04-18T02:33:48.957Z,8.11
2018-04-18T02:34:48.972Z,8.21
2018-04-18T02:35:48.985Z,8.1
2018-04-18T02:36:49.408Z,8.17
2018-04-18T02:37:49.811Z,8.04
2018-04-18T02:38:49.829Z,7.95
2018-04-18T02:39:49.925Z,7.99
2018-04-18T02:40:49.944Z,7.96
2018-04-18T02:41:50.059Z,7.96
2018-04-18T02:42:50.463Z,7.96
2018-04-18T02:43:50.826Z,7.93
2018-04-18T02:44:50.862Z,7.85
2018-04-18T02:45:50.877Z,7.85
2018-04-18T02:46:51.030Z,7.89
2018-04-18T02:47:51.430Z,7.92
2018-04-18T02:48:51.837Z,7.88
2018-04-18T02:49:51.868Z,7.85
2018-04-18T02:50:51.912Z,7.82
2018-04-18T02:51:51.919Z,7.86
2018-04-18T02:52:52.078Z,7.83
2018-04-18T02:53:52.086Z,7.89
2018-04-18T02:54:52.234Z,7.99
2018-04-18T02:55:52.776Z,7.92
2018-04-18T02:56:52.566Z,7.93
2018-04-18T02:57:53.256Z,7.89
2018-04-18T02:58:53.622Z,7.93
2018-04-18T02:59:53.649Z,7.92
2018-04-18T03:00:54.762Z,7.98
2018-04-18T03:01:54.448Z,7.99
2018-04-18T03:02:53.765Z,8.03
2018-04-18T03:03:53.782Z,7.95
2018-04-18T03:04:54.076Z,8.01
2018-04-18T03:05:53.860Z,8.01
2018-04-18T03:06:53.879Z,8.01
2018-04-18T03:07:53.646Z,7.99
2018-04-18T03:08:54.104Z,8.07
2018-04-18T03:09:54.124Z,7.99
2018-04-18T03:10:53.884Z,8.01
2018-04-18T03:11:54.193Z,7.99
2018-04-18T03:12:54.205Z,8.06
2018-04-18T03:13:54.674Z,7.96
2018-04-18T03:14:54.747Z,7.89
2018-04-18T03:15:54.807Z,7.96
2018-04-18T03:16:54.623Z,7.93
2018-04-18T03:17:54.626Z,7.92
2018-04-18T03:18:55.004Z,7.89
2018-04-18T03:19:55.415Z,7.85
2018-04-18T03:20:54.974Z,7.85
2018-04-18T03:21:54.978Z,7.8
2018-04-18T03:22:54.516Z,7.85
2018-04-18T03:23:55.048Z,7.82
2018-04-18T03:24:55.360Z,7.85
2018-04-18T03:25:55.116Z,7.78
2018-04-18T03:26:55.139Z,7.75
2018-04-18T03:27:55.192Z,7.83
2018-04-18T03:28:55.182Z,7.83
2018-04-18T03:29:55.294Z,7.83
2018-04-18T03:30:55.347Z,7.86
2018-04-18T03:31:56.029Z,7.92
2018-04-18T03:32:55.531Z,7.88
2018-04-18T03:33:55.804Z,7.96
2018-04-18T03:34:56.177Z,7.91
2018-04-18T03:35:56.717Z,7.88
2018-04-18T03:36:56.576Z,7.86
2018-04-18T03:37:56.561Z,7.91
2018-04-18T03:38:56.358Z,8.01
2018-04-18T03:39:56.089Z,7.92
2018-04-18T03:40:57.362Z,7.95
2018-04-18T03:41:57.551Z,7.95
2018-04-18T03:42:57.332Z,7.99
2018-04-18T03:43:57.308Z,7.98
2018-04-18T03:44:57.358Z,7.95
2018-04-18T03:45:57.413Z,7.91
2018-04-18T03:46:57.110Z,7.83
2018-04-18T03:47:57.907Z,7.82
2018-04-18T03:48:57.584Z,7.71
2018-04-18T03:49:57.563Z,7.75
2018-04-18T03:50:57.415Z,7.73
2018-04-18T03:51:57.595Z,7.77
2018-04-18T03:52:57.648Z,7.82
2018-04-18T03:53:57.488Z,7.85
2018-04-18T03:54:57.380Z,7.8
2018-04-18T03:55:57.636Z,7.74
2018-04-18T03:56:57.566Z,7.75
2018-04-18T03:57:57.414Z,7.78
2018-04-18T03:58:57.550Z,7.74
2018-04-18T03:59:57.942Z,7.83
2018-04-18T04:00:57.485Z,7.86
2018-04-18T04:01:57.989Z,7.86
2018-04-18T04:02:58.145Z,7.83
2018-04-18T04:03:57.969Z,7.8
2018-04-18T04:04:57.763Z,7.78
2018-04-18T04:05:57.872Z,7.83
2018-04-18T04:06:57.856Z,7.82
2018-04-18T04:07:57.871Z,7.85
2018-04-18T04:08:58.190Z,7.85
2018-04-18T04:09:58.223Z,7.98
2018-04-18T04:10:57.834Z,7.91
2018-04-18T04:11:59.260Z,7.91
2018-04-18T04:12:58.215Z,7.92
2018-04-18T04:13:57.873Z,7.93
2018-04-18T04:14:58.961Z,7.95
2018-04-18T04:15:58.943Z,7.96
2018-04-18T04:16:58.772Z,7.93
2018-04-18T04:17:59.189Z,7.89
2018-04-18T04:18:59.098Z,7.82
2018-04-18T04:19:59.093Z,7.89
2018-04-18T04:20:58.760Z,7.85
2018-04-18T04:21:59.239Z,7.91
2018-04-18T04:22:59.205Z,7.95
2018-04-18T04:23:59.348Z,7.96
2018-04-18T04:24:59.273Z,7.96
2018-04-18T04:25:59.630Z,8.01
2018-04-18T04:26:59.110Z,7.98
2018-04-18T04:27:59.383Z,8.06
2018-04-18T04:28:59.457Z,8.16
2018-04-18T04:29:59.846Z,8.17
2018-04-18T04:30:59.806Z,8.13
2018-04-18T04:31:59.533Z,8.25
2018-04-18T04:32:59.830Z,8.24
2018-04-18T04:33:59.299Z,8.29
2018-04-18T04:34:59.462Z,8.32
2018-04-18T04:35:59.808Z,8.44
2018-04-18T04:37:00.225Z,8.53
2018-04-18T04:37:59.870Z,8.46
2018-04-18T04:39:00.309Z,8.52
2018-04-18T04:39:59.875Z,8.54
2018-04-18T04:40:59.927Z,8.6
2018-04-18T04:42:00.028Z,8.58
2018-04-18T04:43:00.790Z,8.57
2018-04-18T04:44:01.121Z,8.58
2018-04-18T04:45:01.716Z,8.58
2018-04-18T04:46:01.044Z,8.58
2018-04-18T04:47:01.296Z,8.68
2018-04-18T04:48:00.846Z,8.71
2018-04-18T04:49:00.802Z,8.77
2018-04-18T04:50:00.842Z,8.77
2018-04-18T04:51:01.123Z,8.71
2018-04-18T04:52:00.560Z,8.72
2018-04-18T04:53:00.848Z,8.71
2018-04-18T04:54:00.810Z,8.87
2018-04-18T04:55:00.904Z,8.89
2018-04-18T04:56:00.820Z,9.01
2018-04-18T04:57:01.077Z,9.08
2018-04-18T04:58:00.741Z,9.05
2018-04-18T04:59:01.161Z,9.26
2018-04-18T05:00:14.655Z,9.41
2018-04-18T05:01:01.648Z,9.56
2018-04-18T05:02:01.440Z,9.64
2018-04-18T05:03:00.896Z,9.78
2018-04-18T05:04:01.565Z,9.81
2018-04-18T05:05:01.498Z,9.81
2018-04-18T05:06:02.051Z,9.77
2018-04-18T05:07:01.879Z,9.78
2018-04-18T05:08:02.246Z,10
2018-04-18T05:09:02.412Z,9.92
2018-04-18T05:10:01.693Z,10.1
2018-04-18T05:11:02.472Z,10.08
2018-04-18T05:12:02.104Z,10.13
2018-04-18T05:13:02.315Z,10.07
2018-04-18T05:14:02.512Z,10.1
2018-04-18T05:15:02.412Z,10.07
2018-04-18T05:16:02.562Z,10
2018-04-18T05:17:02.561Z,10.07
2018-04-18T05:18:02.585Z,9.96
2018-04-18T05:19:03.089Z,10.08
2018-04-18T05:20:02.785Z,10.07
2018-04-18T05:21:02.967Z,10.07
2018-04-18T05:22:02.717Z,10.2
2018-04-18T05:23:02.992Z,10.28
2018-04-18T05:24:02.894Z,10.38
2018-04-18T05:25:03.207Z,10.72
2018-04-18T05:26:02.853Z,10.98
2018-04-18T05:27:03.382Z,11.33
2018-04-18T05:28:03.325Z,11.66
2018-04-18T05:29:03.448Z,11.64
2018-04-18T05:30:02.736Z,11.76
2018-04-18T05:31:03.743Z,11.98
2018-04-18T05:32:03.299Z,12.25
2018-04-18T05:33:03.320Z,12.7
2018-04-18T05:34:03.573Z,13.06
2018-04-18T05:35:03.945Z,13.37
2018-04-18T05:36:03.669Z,13.7
2018-04-18T05:37:03.743Z,14.11
2018-04-18T05:38:03.949Z,14.77
2018-04-18T05:39:03.502Z,15.31
2018-04-18T05:40:03.857Z,15.71
2018-04-18T05:41:04.479Z,15.88
2018-04-18T05:42:04.459Z,16.08
2018-04-18T05:43:04.202Z,16.11
2018-04-18T05:44:03.454Z,16.37
2018-04-18T05:45:05.426Z,16.58
2018-04-18T05:46:04.754Z,16.72
2018-04-18T05:47:04.840Z,16.94
2018-04-18T05:48:04.568Z,17.17
2018-04-18T05:49:04.937Z,17.46
2018-04-18T05:50:04.353Z,17.6
2018-04-18T05:51:04.366Z,17.88
2018-04-18T05:52:04.555Z,18.19
2018-04-18T05:53:04.956Z,18.56
2018-04-18T05:54:05.349Z,19.15
2018-04-18T05:55:05.409Z,19.46
2018-04-18T05:56:05.529Z,19.9
2018-04-18T05:57:05.165Z,20.51
2018-04-18T05:58:05.265Z,21.21
2018-04-18T05:59:05.388Z,21.78
2018-04-18T06:00:18.539Z,22.36
2018-04-18T06:01:05.911Z,22.24
2018-04-18T06:02:06.096Z,22.15
2018-04-18T06:03:06.208Z,22.39
2018-04-18T06:04:06.299Z,22.88
2018-04-18T06:05:06.501Z,23.34
2018-04-18T06:06:06.932Z,23.75
2018-04-18T06:07:06.680Z,23.75
2018-04-18T06:08:07.312Z,23.74
2018-04-18T06:09:07.478Z,23.79
2018-04-18T06:10:07.861Z,23.72
2018-04-18T06:11:08.019Z,23.71
2018-04-18T06:12:08.073Z,23.9
2018-04-18T06:13:08.482Z,24.29
2018-04-18T06:14:08.483Z,24.71
2018-04-18T06:15:09.067Z,24.92
2018-04-18T06:16:09.003Z,25.29
2018-04-18T06:17:09.039Z,25.74
2018-04-18T06:18:09.193Z,26.23
2018-04-18T06:19:09.621Z,26.63
2018-04-18T06:20:09.660Z,27
2018-04-18T06:21:10.025Z,27.33
2018-04-18T06:22:09.674Z,27.55
2018-04-18T06:23:09.597Z,27.42
2018-04-18T06:24:10.018Z,27.48
2018-04-18T06:25:10.144Z,27.15
2018-04-18T06:26:10.326Z,27.34
2018-04-18T06:27:10.705Z,27.45
2018-04-18T06:28:10.759Z,27.45
2018-04-18T06:29:10.664Z,27.71
2018-04-18T06:30:11.330Z,27.87
2018-04-18T06:31:10.824Z,27.71
2018-04-18T06:32:11.488Z,27.96
2018-04-18T06:33:11.601Z,28.49
2018-04-18T06:34:11.357Z,28.9
2018-04-18T06:35:12.469Z,29.23
2018-04-18T06:36:12.740Z,29.58
2018-04-18T06:37:12.444Z,29.85
2018-04-18T06:38:12.845Z,30.25
2018-04-18T06:39:13.504Z,30.59
2018-04-18T06:40:13.678Z,30.81
2018-04-18T06:41:14.047Z,31.12
2018-04-18T06:42:14.139Z,31.49
2018-04-18T06:43:14.636Z,31.62
2018-04-18T06:44:15.026Z,31.71
2018-04-18T06:45:14.662Z,31.37
2018-04-18T06:46:15.471Z,31.19
2018-04-18T06:47:15.625Z,31.36
2018-04-18T06:48:15.748Z,31.41
2018-04-18T06:49:16.193Z,31.52
2018-04-18T06:50:15.966Z,31.56
2018-04-18T06:51:16.828Z,31.81
2018-04-18T06:52:16.718Z,31.98
2018-04-18T06:53:17.082Z,32.1
2018-04-18T06:54:17.195Z,32.24
2018-04-18T06:55:16.873Z,32.27
2018-04-18T06:56:16.981Z,32.35
2018-04-18T06:57:17.144Z,32.69
2018-04-18T06:58:17.551Z,32.86
2018-04-18T06:59:17.866Z,33.02
2018-04-18T07:00:21.310Z,33.43
2018-04-18T07:01:21.719Z,33.87
2018-04-18T07:02:21.759Z,33.77
2018-04-18T07:03:22.231Z,33.78
2018-04-18T07:04:22.161Z,33.99
2018-04-18T07:05:22.586Z,34.18
2018-04-18T07:06:22.609Z,34.39
2018-04-18T07:07:22.412Z,34.54
2018-04-18T07:08:23.124Z,34.79
2018-04-18T07:09:23.776Z,35.09
2018-04-18T07:10:23.476Z,35.3
2018-04-18T07:11:23.897Z,35.5
2018-04-18T07:12:23.673Z,35.68
2018-04-18T07:13:23.850Z,35.87
2018-04-18T07:14:24.499Z,36.21
2018-04-18T07:15:24.784Z,36.41
2018-04-18T07:16:24.783Z,36.59
2018-04-18T07:17:24.820Z,36.8
2018-04-18T07:18:25.243Z,36.89
2018-04-18T07:19:25.468Z,37.04
2018-04-18T07:20:25.383Z,36.58
2018-04-18T07:21:26.042Z,36.14
2018-04-18T07:22:26.478Z,36.01
2018-04-18T07:23:26.211Z,36.15
2018-04-18T07:24:25.852Z,36.34
2018-04-18T07:25:26.450Z,36.24
2018-04-18T07:26:26.622Z,36.47
2018-04-18T07:27:26.137Z,36.74
2018-04-18T07:28:26.451Z,37.07
2018-04-18T07:29:26.602Z,37.51
2018-04-18T07:30:27.343Z,37.83
2018-04-18T07:31:27.063Z,38.03
2018-04-18T07:32:27.576Z,38.44
2018-04-18T07:33:27.700Z,38.7
2018-04-18T07:34:27.693Z,38.89
2018-04-18T07:35:28.054Z,38.73
2018-04-18T07:36:28.602Z,38.54
2018-04-18T07:37:28.667Z,38.36
2018-04-18T07:38:28.606Z,38.33
2018-04-18T07:39:28.655Z,38.58
2018-04-18T07:40:29.340Z,38.81
2018-04-18T07:41:29.091Z,38.93
2018-04-18T07:42:29.783Z,38.83
2018-04-18T07:43:30.245Z,39.01
2018-04-18T07:44:29.742Z,38.58
2018-04-18T07:45:30.335Z,38.3
2018-04-18T07:46:30.496Z,38.49
2018-04-18T07:47:31.234Z,38.59
2018-04-18T07:48:31.649Z,38.76
2018-04-18T07:49:31.228Z,38.52
2018-04-18T07:50:31.909Z,38.31
2018-04-18T07:51:31.968Z,38.37
2018-04-18T07:52:32.582Z,38.42
2018-04-18T07:53:32.528Z,38.47
2018-04-18T07:54:33.038Z,38.4
2018-04-18T07:55:32.980Z,38.18
2018-04-18T07:56:33.419Z,38.02
2018-04-18T07:57:33.735Z,38.02
2018-04-18T07:58:34.157Z,38.27
2018-04-18T07:59:34.345Z,38.49
2018-04-18T08:00:34.373Z,38.68
2018-04-18T08:01:34.274Z,39.04
2018-04-18T08:02:35.077Z,39.52
2018-04-18T08:03:34.895Z,39.76
2018-04-18T08:04:34.683Z,39.97
2018-04-18T08:05:35.123Z,40.18
2018-04-18T08:06:35.301Z,40.3
2018-04-18T08:07:35.709Z,40.41
2018-04-18T08:08:35.527Z,40.27
2018-04-18T08:09:35.806Z,40.01
2018-04-18T08:10:35.829Z,39.99
2018-04-18T08:11:35.889Z,39.76
2018-04-18T08:12:35.923Z,39.31
2018-04-18T08:13:36.351Z,39.56
2018-04-18T08:14:36.386Z,39.72
2018-04-18T08:15:36.616Z,39.42
2018-04-18T08:16:36.567Z,39.11
2018-04-18T08:17:37.016Z,39.04
2018-04-18T08:18:36.949Z,38.87
2018-04-18T08:19:37.288Z,38.78
2018-04-18T08:20:36.760Z,38.93
2018-04-18T08:21:36.899Z,39.22
2018-04-18T08:22:37.217Z,39.52
2018-04-18T08:23:37.655Z,39.94
2018-04-18T08:24:37.796Z,40.15
2018-04-18T08:25:38.192Z,40.06
2018-04-18T08:26:38.585Z,39.99
2018-04-18T08:27:39.265Z,40.16
2018-04-18T08:28:39.310Z,40.41
2018-04-18T08:29:39.454Z,40.36
2018-04-18T08:30:39.592Z,40.52
2018-04-18T08:31:39.772Z,40.91
2018-04-18T08:32:40.235Z,41.32
2018-04-18T08:33:40.381Z,41.92
2018-04-18T08:34:40.952Z,42.06
2018-04-18T08:35:41.114Z,42.25
2018-04-18T08:36:40.969Z,42.44
2018-04-18T08:37:41.480Z,42.6
2018-04-18T08:38:41.459Z,42.78
2018-04-18T08:39:41.633Z,42.9
2018-04-18T08:40:41.792Z,43.1
2018-04-18T08:41:42.222Z,43.16
2018-04-18T08:42:42.246Z,42.9
2018-04-18T08:43:42.053Z,42.88
2018-04-18T08:44:42.710Z,43.01
2018-04-18T08:45:43.144Z,43.28
2018-04-18T08:46:43.297Z,43.54
2018-04-18T08:47:43.729Z,43.71
2018-04-18T08:48:44.082Z,43.95
2018-04-18T08:49:43.975Z,43.89
2018-04-18T08:50:44.044Z,43.89
2018-04-18T08:51:44.155Z,43.69
2018-04-18T08:52:44.899Z,43.76
2018-04-18T08:53:44.923Z,43.93
2018-04-18T08:54:45.124Z,43.89
2018-04-18T08:55:44.549Z,43.71
2018-04-18T08:56:45.136Z,43.51
2018-04-18T08:57:45.126Z,43.65
2018-04-18T08:58:45.161Z,43.9
2018-04-18T08:59:44.979Z,43.81
2018-04-18T09:00:47.133Z,43.74
2018-04-18T09:01:46.682Z,43.78
2018-04-18T09:02:45.396Z,43.92
2018-04-18T09:03:45.731Z,44.15
2018-04-18T09:04:45.748Z,44.27
2018-04-18T09:05:45.983Z,44.52
2018-04-18T09:06:45.987Z,44.76
2018-04-18T09:07:46.190Z,44.99
2018-04-18T09:08:45.988Z,44.91
2018-04-18T09:09:46.236Z,44.83
2018-04-18T09:10:46.453Z,44.58
2018-04-18T09:11:46.213Z,44.58
2018-04-18T09:12:46.887Z,44.75
2018-04-18T09:13:46.963Z,44.6
2018-04-18T09:14:46.479Z,44.65
2018-04-18T09:15:46.852Z,44.29
2018-04-18T09:16:47.080Z,44.17
2018-04-18T09:17:47.229Z,44.33
2018-04-18T09:18:47.653Z,44.43
2018-04-18T09:19:47.988Z,44.55
2018-04-18T09:20:48.473Z,44.73
2018-04-18T09:21:48.483Z,45.07
2018-04-18T09:22:48.027Z,45.12
2018-04-18T09:23:48.052Z,44.95
2018-04-18T09:24:48.767Z,45.03
2018-04-18T09:25:48.932Z,45.21
2018-04-18T09:26:48.685Z,45.1
2018-04-18T09:27:49.066Z,45.13
2018-04-18T09:28:49.494Z,45.36
2018-04-18T09:29:49.242Z,45.44
2018-04-18T09:30:49.675Z,45.55
2018-04-18T09:31:49.676Z,45.86
2018-04-18T09:32:49.362Z,46.04
2018-04-18T09:33:49.799Z,46.21
2018-04-18T09:34:49.948Z,45.66
2018-04-18T09:35:49.956Z,45.24
2018-04-18T09:36:50.672Z,44.87
2018-04-18T09:37:50.453Z,44.76
2018-04-18T09:38:50.752Z,44.6
2018-04-18T09:39:50.747Z,44.6
2018-04-18T09:40:51.036Z,44.81
2018-04-18T09:41:51.032Z,44.85
2018-04-18T09:42:51.660Z,44.92
2018-04-18T09:43:51.623Z,44.92
2018-04-18T09:44:51.621Z,45.1
2018-04-18T09:45:51.650Z,45.28
2018-04-18T09:46:52.766Z,45.4
2018-04-18T09:47:52.464Z,45.64
2018-04-18T09:48:52.510Z,45.66
2018-04-18T09:49:52.248Z,45.78
2018-04-18T09:50:52.122Z,45.5
2018-04-18T09:51:52.863Z,45.44
2018-04-18T09:52:53.012Z,45.5
2018-04-18T09:53:52.843Z,45.63
2018-04-18T09:54:53.088Z,45.38
2018-04-18T09:55:53.150Z,45.43
2018-04-18T09:56:52.878Z,45.37
2018-04-18T09:57:53.198Z,45.09
2018-04-18T09:58:53.640Z,44.6
2018-04-18T09:59:53.548Z,43.97
2018-04-18T10:00:53.592Z,43.7
2018-04-18T10:01:53.584Z,43.42
2018-04-18T10:02:54.040Z,43.28
2018-04-18T10:03:53.925Z,43.58
2018-04-18T10:04:54.536Z,43.92
2018-04-18T10:05:55.006Z,44.02
2018-04-18T10:06:55.024Z,44
2018-04-18T10:07:55.473Z,43.96
2018-04-18T10:08:55.614Z,44.17
2018-04-18T10:09:55.673Z,44.27
2018-04-18T10:10:56.379Z,44.46
2018-04-18T10:11:56.812Z,44.49
2018-04-18T10:12:57.220Z,44.43
2018-04-18T10:13:57.329Z,44.49
2018-04-18T10:14:57.639Z,44.55
2018-04-18T10:15:57.688Z,44.72
2018-04-18T10:16:57.739Z,44.65
2018-04-18T10:17:57.869Z,44.31
2018-04-18T10:18:57.809Z,43.95
2018-04-18T10:19:57.575Z,43.71
2018-04-18T10:20:57.979Z,43.7
2018-04-18T10:21:58.073Z,43.65
2018-04-18T10:22:58.665Z,43.66
2018-04-18T10:23:58.417Z,43.76
2018-04-18T10:24:58.908Z,43.89
2018-04-18T10:25:58.638Z,44.08
2018-04-18T10:26:59.088Z,43.93
2018-04-18T10:27:59.435Z,43.77
2018-04-18T10:28:59.303Z,43.7
2018-04-18T10:29:59.603Z,43.35
2018-04-18T10:30:59.765Z,43.24
2018-04-18T10:32:00.192Z,43.07
2018-04-18T10:33:00.617Z,42.71
2018-04-18T10:34:00.439Z,42.64
2018-04-18T10:35:00.282Z,41.8
2018-04-18T10:36:00.872Z,41.31
2018-04-18T10:37:01.285Z,41.04
2018-04-18T10:38:00.773Z,40.97
2018-04-18T10:39:01.362Z,40.91
2018-04-18T10:40:01.858Z,40.98
2018-04-18T10:41:01.861Z,41
2018-04-18T10:42:01.785Z,40.63
2018-04-18T10:43:02.220Z,40.59
2018-04-18T10:44:02.325Z,40.48
2018-04-18T10:45:02.289Z,40.5
2018-04-18T10:46:02.490Z,40.57
2018-04-18T10:47:03.621Z,40.44
2018-04-18T10:48:03.632Z,40.36
2018-04-18T10:49:02.582Z,40.24
2018-04-18T10:50:02.712Z,39.93
2018-04-18T10:51:02.474Z,39.52
2018-04-18T10:52:03.772Z,39.37
2018-04-18T10:53:03.655Z,39.15
2018-04-18T10:54:03.742Z,38.81
2018-04-18T10:55:02.787Z,37.99
2018-04-18T10:56:03.449Z,37.45
2018-04-18T10:57:03.199Z,37.22
2018-04-18T10:58:03.920Z,37.22
2018-04-18T10:59:03.286Z,37.18
2018-04-18T11:00:15.780Z,37.22
2018-04-18T11:01:03.155Z,37.23
2018-04-18T11:02:03.511Z,37.17
2018-04-18T11:03:03.360Z,37.07
2018-04-18T11:04:03.705Z,36.93
2018-04-18T11:05:03.401Z,36.7
2018-04-18T11:06:03.857Z,36.39
2018-04-18T11:07:04.123Z,36.05
2018-04-18T11:08:04.103Z,35.89
2018-04-18T11:09:04.610Z,35.62
2018-04-18T11:10:04.419Z,34.84
2018-04-18T11:11:04.753Z,34.05
2018-04-18T11:12:05.022Z,33.77
2018-04-18T11:13:04.788Z,33.4
2018-04-18T11:14:04.839Z,33.29
2018-04-18T11:15:05.182Z,33.26
2018-04-18T11:16:05.198Z,33.39
2018-04-18T11:17:06.092Z,33.46
2018-04-18T11:18:05.333Z,33.59
2018-04-18T11:19:05.360Z,33.62
2018-04-18T11:20:05.245Z,33.5
2018-04-18T11:21:05.655Z,33.09
2018-04-18T11:22:05.145Z,32.86
2018-04-18T11:23:05.591Z,32.62
2018-04-18T11:24:05.657Z,32.46
2018-04-18T11:25:05.709Z,32.27
2018-04-18T11:26:07.260Z,32.12
2018-04-18T11:27:07.855Z,32.05
2018-04-18T11:28:06.695Z,31.97
2018-04-18T11:29:07.015Z,31.81
2018-04-18T11:30:06.569Z,31.5
2018-04-18T11:31:06.738Z,31.1
2018-04-18T11:32:06.943Z,30.86
2018-04-18T11:33:06.906Z,30.51
2018-04-18T11:34:06.876Z,30.14
2018-04-18T11:35:06.752Z,29.89
2018-04-18T11:36:06.802Z,29.66
2018-04-18T11:37:06.838Z,29.61
2018-04-18T11:38:07.207Z,29.47
2018-04-18T11:39:07.648Z,29.2
2018-04-18T11:40:07.418Z,29.01
2018-04-18T11:41:07.440Z,28.88
2018-04-18T11:42:07.157Z,28.64
2018-04-18T11:43:07.438Z,28.53
2018-04-18T11:44:07.306Z,28.38
2018-04-18T11:45:07.769Z,28.06
2018-04-18T11:46:07.824Z,27.83
2018-04-18T11:47:08.570Z,27.45
2018-04-18T11:48:08.484Z,27.3
2018-04-18T11:49:08.235Z,27.06
2018-04-18T11:50:08.450Z,26.93
2018-04-18T11:51:08.522Z,26.75
2018-04-18T11:52:08.045Z,26.52
2018-04-18T11:53:08.841Z,26.49
2018-04-18T11:54:07.765Z,26.26
2018-04-18T11:55:08.458Z,26.03
2018-04-18T11:56:08.640Z,25.82
2018-04-18T11:57:08.939Z,25.84
2018-04-18T11:58:08.017Z,25.76
2018-04-18T11:59:08.186Z,25.67
2018-04-18T12:00:12.417Z,25.6
2018-04-18T12:01:08.016Z,25.62
2018-04-18T12:02:08.291Z,25.48
2018-04-18T12:03:07.793Z,25.37
2018-04-18T12:04:08.461Z,25.41
2018-04-18T12:05:08.388Z,25.38
2018-04-18T12:06:08.458Z,25.33
2018-04-18T12:07:08.729Z,25.32
2018-04-18T12:08:08.214Z,25.33
2018-04-18T12:09:08.257Z,25.2
2018-04-18T12:10:08.683Z,25.17
2018-04-18T12:11:08.962Z,25.09
2018-04-18T12:12:09.371Z,25.05
2018-04-18T12:13:09.504Z,25.11
2018-04-18T12:14:09.567Z,25.07
2018-04-18T12:15:09.873Z,25.05
2018-04-18T12:16:09.619Z,25.05
2018-04-18T12:17:09.396Z,25.08
2018-04-18T12:18:09.522Z,25.07
2018-04-18T12:19:09.678Z,25.05
2018-04-18T12:20:10.213Z,25.08
2018-04-18T12:21:10.750Z,25.01
2018-04-18T12:22:10.964Z,24.96
2018-04-18T12:23:10.697Z,24.96
2018-04-18T12:24:10.752Z,24.83
2018-04-18T12:25:11.175Z,24.77
2018-04-18T12:26:10.881Z,24.82
2018-04-18T12:27:11.293Z,24.66
2018-04-18T12:28:11.489Z,24.67
2018-04-18T12:29:11.812Z,24.58
2018-04-18T12:30:11.717Z,24.52
2018-04-18T12:31:12.906Z,24.49
2018-04-18T12:32:12.685Z,24.45
2018-04-18T12:33:12.395Z,24.52
2018-04-18T12:34:12.547Z,24.46
2018-04-18T12:35:12.473Z,24.49
2018-04-18T12:36:12.862Z,24.58
2018-04-18T12:37:12.904Z,24.56
2018-04-18T12:38:12.997Z,24.56
2018-04-18T12:39:13.139Z,24.56
2018-04-18T12:40:13.252Z,24.59
2018-04-18T12:41:13.107Z,24.64
2018-04-18T12:42:13.524Z,24.44
2018-04-18T12:43:13.998Z,24.44
2018-04-18T12:44:14.184Z,24.4
2018-04-18T12:45:14.214Z,24.37
2018-04-18T12:46:14.898Z,24.4
2018-04-18T12:47:14.871Z,24.29
2018-04-18T12:48:15.342Z,24.27
2018-04-18T12:49:15.443Z,24.29
2018-04-18T12:50:15.911Z,24.29
2018-04-18T12:51:15.918Z,24.3
2018-04-18T12:52:16.345Z,24.24
2018-04-18T12:53:16.317Z,24.21
2018-04-18T12:54:16.467Z,24.29
2018-04-18T12:55:16.450Z,24.21
2018-04-18T12:56:16.459Z,24.19
2018-04-18T12:57:16.847Z,24.19
2018-04-18T12:58:16.974Z,24.18
2018-04-18T12:59:16.979Z,24.15
2018-04-18T13:01:18.252Z,24.15
2018-04-18T13:02:18.026Z,24.14
2018-04-18T13:03:18.316Z,24.17
2018-04-18T13:04:18.313Z,24.08
2018-04-18T13:05:18.580Z,24.11
2018-04-18T13:06:18.615Z,24.07
2018-04-18T13:07:18.758Z,24.04
2018-04-18T13:08:18.757Z,24.03
2018-04-18T13:09:18.583Z,24.04